Terminal Aerodrome Forecast
Issued by NWS

Home | Current Version | Previous Version | Text Only | Print | Product List | Glossary On
Versions: 1 2 3 4 5 6 7 8 9 10 11 12 13 14 15 16 17 18 19 20 21 22 23 24 25
000
FTUS46 KPDT 311100
TAFDLS
TAF
KDLS 311120Z 3112/0112 VRB04KT P6SM OVC020
     FM311400 09003KT P6SM OVC015
     FM311700 VRB05KT P6SM OVC020
     FM312100 08002KT P6SM OVC025
     FM010300 VRB02KT P6SM OVC018=

USA.gov is the U.S. government's official web portal to all federal, state and local government web resources and services.